Terminal Aerodrome Forecast
Issued by NWS Louisville, KY

Home | Current Version | Previous Version | Text Only | Print | Product List | Glossary On
Versions: 1 2 3 4 5 6 7 8 9 10 11 12 13 14 15 16 17 18 19 20 21 22
068
FTUS43 KLMK 161127
TAFSDF
TAF
KSDF 161127Z 1612/1718 30012KT 5SM RA BKN025 OVC035
     FM161400 32012KT 6SM -RA BKN025
     FM161800 34016KT P6SM OVC035
     FM162100 34014KT P6SM BKN035
     FM170200 01008KT P6SM SCT035 BKN250=

USA.gov is the U.S. government's official web portal to all federal, state and local government web resources and services.